sensor_id;sensor_type;location;lat;lon;timestamp;pressure;altitude;pressure_sealevel;temperature;humidity
9325;BME280;4701;51.566;6.776;2022-08-19T05:02:08;101021.41;;;16.16;98.94
9325;BME280;4701;51.566;6.776;2022-08-19T05:04:10;101022.72;;;16.18;98.04
9325;BME280;4701;51.566;6.776;2022-08-19T05:06:14;101024.59;;;16.23;98.21
9325;BME280;4701;51.566;6.776;2022-08-19T05:08:20;101033.81;;;16.32;97.73
9325;BME280;4701;51.566;6.776;2022-08-19T05:10:23;101028.88;;;16.29;95.71
9325;BME280;4701;51.566;6.776;2022-08-19T05:12:24;101031.94;;;16.27;94.93
9325;BME280;4701;51.566;6.776;2022-08-19T05:14:27;101039.06;;;16.28;94.77
9325;BME280;4701;51.566;6.776;2022-08-19T05:16:30;101045.97;;;16.26;94.63
9325;BME280;4701;51.566;6.776;2022-08-19T05:18:34;101043.69;;;16.33;95.64
9325;BME280;4701;51.566;6.776;2022-08-19T05:20:53;101039.50;;;16.36;95.72
9325;BME280;4701;51.566;6.776;2022-08-19T05:23:13;101040.78;;;16.43;95.92
9325;BME280;4701;51.566;6.776;2022-08-19T05:25:19;101053.34;;;16.49;95.93
9325;BME280;4701;51.566;6.776;2022-08-19T05:27:21;101054.91;;;16.55;95.19
9325;BME280;4701;51.566;6.776;2022-08-19T05:29:25;101052.63;;;16.62;95.53
9325;BME280;4701;51.566;6.776;2022-08-19T05:31:27;101059.75;;;16.63;93.91
9325;BME280;4701;51.566;6.776;2022-08-19T05:33:29;101061.59;;;16.68;94.38
9325;BME280;4701;51.566;6.776;2022-08-19T05:35:33;101060.13;;;16.76;94.84
9325;BME280;4701;51.566;6.776;2022-08-19T05:37:35;101059.44;;;16.84;94.63
9325;BME280;4701;51.566;6.776;2022-08-19T05:39:37;101057.84;;;16.96;94.33
9325;BME280;4701;51.566;6.776;2022-08-19T05:41:41;101054.06;;;16.92;92.83
9325;BME280;4701;51.566;6.776;2022-08-19T05:43:43;101050.41;;;16.97;93.18
9325;BME280;4701;51.566;6.776;2022-08-19T05:45:45;101046.72;;;17.01;93.46
9325;BME280;4701;51.566;6.776;2022-08-19T05:47:47;101042.84;;;17.02;92.72
9325;BME280;4701;51.566;6.776;2022-08-19T05:49:49;101051.84;;;17.08;92.97
9325;BME280;4701;51.566;6.776;2022-08-19T05:51:53;101051.75;;;17.13;92.74
9325;BME280;4701;51.566;6.776;2022-08-19T05:53:55;101055.03;;;17.15;93.01
9325;BME280;4701;51.566;6.776;2022-08-19T05:55:58;101051.06;;;17.21;93.03
9325;BME280;4701;51.566;6.776;2022-08-19T05:58:04;101052.41;;;17.24;92.96
9325;BME280;4701;51.566;6.776;2022-08-19T06:00:11;101051.19;;;17.30;92.84
9325;BME280;4701;51.566;6.776;2022-08-19T06:02:13;101056.09;;;17.33;93.01
9325;BME280;4701;51.566;6.776;2022-08-19T06:04:16;101059.25;;;17.40;92.86
9325;BME280;4701;51.566;6.776;2022-08-19T06:06:19;101061.09;;;17.45;92.90
9325;BME280;4701;51.566;6.776;2022-08-19T06:08:23;101057.63;;;17.53;93.27
9325;BME280;4701;51.566;6.776;2022-08-19T06:10:25;101059.66;;;17.61;93.29
9325;BME280;4701;51.566;6.776;2022-08-19T06:12:27;101053.16;;;17.70;93.95
9325;BME280;4701;51.566;6.776;2022-08-19T06:14:33;101056.22;;;17.83;95.01
9325;BME280;4701;51.566;6.776;2022-08-19T06:16:40;101054.56;;;17.95;95.43
9325;BME280;4701;51.566;6.776;2022-08-19T06:18:42;101054.34;;;18.05;95.21
9325;BME280;4701;51.566;6.776;2022-08-19T06:20:44;101051.91;;;18.18;94.74
9325;BME280;4701;51.566;6.776;2022-08-19T06:22:48;101050.84;;;18.27;93.92
9325;BME280;4701;51.566;6.776;2022-08-19T06:24:53;101052.22;;;18.38;93.95
9325;BME280;4701;51.566;6.776;2022-08-19T06:26:56;101052.50;;;18.50;93.43
9325;BME280;4701;51.566;6.776;2022-08-19T06:28:59;101055.59;;;18.63;94.07
9325;BME280;4701;51.566;6.776;2022-08-19T06:31:06;101053.06;;;18.75;94.47
9325;BME280;4701;51.566;6.776;2022-08-19T06:33:08;101043.50;;;18.81;94.47
9325;BME280;4701;51.566;6.776;2022-08-19T06:35:10;101050.41;;;18.92;94.07
9325;BME280;4701;51.566;6.776;2022-08-19T06:37:13;101055.50;;;18.99;93.76
9325;BME280;4701;51.566;6.776;2022-08-19T06:39:18;101046.28;;;19.03;93.44
9325;BME280;4701;51.566;6.776;2022-08-19T06:41:22;101049.41;;;19.10;92.77
9325;BME280;4701;51.566;6.776;2022-08-19T06:43:24;101038.53;;;19.14;92.83
9325;BME280;4701;51.566;6.776;2022-08-19T06:45:26;101041.47;;;19.17;92.85
9325;BME280;4701;51.566;6.776;2022-08-19T06:47:28;101043.97;;;19.27;92.98
9325;BME280;4701;51.566;6.776;2022-08-19T06:49:31;101043.69;;;19.38;92.80
9325;BME280;4701;51.566;6.776;2022-08-19T06:51:33;101040.16;;;19.46;92.23
9325;BME280;4701;51.566;6.776;2022-08-19T06:53:35;101039.91;;;19.56;91.72
9325;BME280;4701;51.566;6.776;2022-08-19T06:55:37;101049.03;;;19.65;91.40
9325;BME280;4701;51.566;6.776;2022-08-19T06:57:41;101046.94;;;19.71;90.55
9325;BME280;4701;51.566;6.776;2022-08-19T06:59:45;101049.56;;;19.76;90.06
9325;BME280;4701;51.566;6.776;2022-08-19T07:01:49;101048.41;;;19.77;89.65
9325;BME280;4701;51.566;6.776;2022-08-19T07:03:51;101053.47;;;19.83;89.12
9325;BME280;4701;51.566;6.776;2022-08-19T07:05:53;101046.81;;;19.84;88.92
9325;BME280;4701;51.566;6.776;2022-08-19T07:07:55;101048.31;;;19.90;89.60
9325;BME280;4701;51.566;6.776;2022-08-19T07:09:57;101045.19;;;19.92;88.83
9325;BME280;4701;51.566;6.776;2022-08-19T07:11:59;101050.59;;;19.97;88.78
9325;BME280;4701;51.566;6.776;2022-08-19T07:14:03;101059.25;;;20.04;88.84
9325;BME280;4701;51.566;6.776;2022-08-19T07:16:08;101063.13;;;20.03;88.24
9325;BME280;4701;51.566;6.776;2022-08-19T07:18:11;101067.50;;;19.95;88.68
9325;BME280;4701;51.566;6.776;2022-08-19T07:20:13;101067.19;;;19.88;88.73
9325;BME280;4701;51.566;6.776;2022-08-19T07:22:18;101067.69;;;19.90;88.94
9325;BME280;4701;51.566;6.776;2022-08-19T07:24:22;101064.44;;;19.97;89.36
9325;BME280;4701;51.566;6.776;2022-08-19T07:26:27;101061.69;;;20.06;89.33
9325;BME280;4701;51.566;6.776;2022-08-19T07:28:29;101061.84;;;20.18;88.92
9325;BME280;4701;51.566;6.776;2022-08-19T07:30:32;101066.44;;;20.31;88.05
9325;BME280;4701;51.566;6.776;2022-08-19T07:32:37;101067.63;;;20.38;87.13
9325;BME280;4701;51.566;6.776;2022-08-19T07:34:39;101070.91;;;20.49;86.39
9325;BME280;4701;51.566;6.776;2022-08-19T07:36:42;101073.81;;;20.53;86.31
9325;BME280;4701;51.566;6.776;2022-08-19T07:38:47;101080.03;;;20.58;85.77
9325;BME280;4701;51.566;6.776;2022-08-19T07:40:49;101087.03;;;20.64;85.53
9325;BME280;4701;51.566;6.776;2022-08-19T07:42:51;101081.31;;;20.69;85.21
9325;BME280;4701;51.566;6.776;2022-08-19T07:44:53;101090.09;;;20.80;85.12
9325;BME280;4701;51.566;6.776;2022-08-19T07:46:57;101096.47;;;20.81;84.53
9325;BME280;4701;51.566;6.776;2022-08-19T07:49:00;101095.47;;;20.85;83.63
9325;BME280;4701;51.566;6.776;2022-08-19T07:51:04;101091.72;;;20.90;83.95
9325;BME280;4701;51.566;6.776;2022-08-19T07:53:08;101089.28;;;20.97;83.73
9325;BME280;4701;51.566;6.776;2022-08-19T07:55:11;101094.16;;;21.08;82.83
9325;BME280;4701;51.566;6.776;2022-08-19T07:57:13;101095.78;;;21.18;82.35
9325;BME280;4701;51.566;6.776;2022-08-19T07:59:15;101097.06;;;21.29;82.04
9325;BME280;4701;51.566;6.776;2022-08-19T08:01:20;101097.22;;;21.41;81.05
9325;BME280;4701;51.566;6.776;2022-08-19T08:03:25;101097.19;;;21.50;79.92
9325;BME280;4701;51.566;6.776;2022-08-19T08:05:42;101100.25;;;21.57;79.38
9325;BME280;4701;51.566;6.776;2022-08-19T08:08:02;101105.94;;;21.61;79.45
9325;BME280;4701;51.566;6.776;2022-08-19T08:10:21;101107.22;;;21.63;79.21
9325;BME280;4701;51.566;6.776;2022-08-19T08:12:26;101117.16;;;21.73;79.59
9325;BME280;4701;51.566;6.776;2022-08-19T08:14:31;101099.97;;;21.79;77.77
9325;BME280;4701;51.566;6.776;2022-08-19T08:16:35;101115.81;;;21.79;77.06
9325;BME280;4701;51.566;6.776;2022-08-19T08:18:38;101118.81;;;21.65;76.32
9325;BME280;4701;51.566;6.776;2022-08-19T08:20:42;101113.94;;;21.53;77.12
9325;BME280;4701;51.566;6.776;2022-08-19T08:22:45;101114.31;;;21.52;77.35
9325;BME280;4701;51.566;6.776;2022-08-19T08:25:08;101119.19;;;21.55;77.48
9325;BME280;4701;51.566;6.776;2022-08-19T08:27:11;101119.34;;;21.59;77.27
9325;BME280;4701;51.566;6.776;2022-08-19T08:29:13;101124.38;;;21.65;76.83
9325;BME280;4701;51.566;6.776;2022-08-19T08:31:16;101129.53;;;21.84;76.27
9325;BME280;4701;51.566;6.776;2022-08-19T08:33:20;101120.19;;;21.88;75.21
9325;BME280;4701;51.566;6.776;2022-08-19T08:35:24;101124.41;;;21.95;74.45
9325;BME280;4701;51.566;6.776;2022-08-19T08:37:25;101126.22;;;21.99;73.93
9325;BME280;4701;51.566;6.776;2022-08-19T08:39:27;101124.59;;;21.98;73.30
9325;BME280;4701;51.566;6.776;2022-08-19T08:41:37;101132.25;;;22.01;73.02
9325;BME280;4701;51.566;6.776;2022-08-19T08:43:46;101139.44;;;22.02;73.26
9325;BME280;4701;51.566;6.776;2022-08-19T08:45:53;101128.94;;;22.08;70.96
9325;BME280;4701;51.566;6.776;2022-08-19T08:47:59;101127.31;;;22.07;70.28
9325;BME280;4701;51.566;6.776;2022-08-19T08:50:06;101124.34;;;22.12;70.52
9325;BME280;4701;51.566;6.776;2022-08-19T08:52:17;101120.41;;;22.13;70.96
9325;BME280;4701;51.566;6.776;2022-08-19T08:54:24;101128.25;;;22.19;70.28
9325;BME280;4701;51.566;6.776;2022-08-19T08:56:27;101121.06;;;22.18;71.44
9325;BME280;4701;51.566;6.776;2022-08-19T08:58:35;101126.56;;;22.27;71.26
9325;BME280;4701;51.566;6.776;2022-08-19T09:00:45;101127.69;;;22.26;70.33
9325;BME280;4701;51.566;6.776;2022-08-19T09:02:48;101123.63;;;22.23;69.94
9325;BME280;4701;51.566;6.776;2022-08-19T09:04:50;101121.66;;;22.24;70.18
9325;BME280;4701;51.566;6.776;2022-08-19T09:07:09;101114.97;;;22.25;70.13
9325;BME280;4701;51.566;6.776;2022-08-19T09:09:21;101116.59;;;22.26;70.26
9325;BME280;4701;51.566;6.776;2022-08-19T09:11:55;101122.59;;;22.37;69.45
9325;BME280;4701;51.566;6.776;2022-08-19T09:14:06;101116.75;;;22.50;69.07
9325;BME280;4701;51.566;6.776;2022-08-19T09:16:13;101120.00;;;22.52;67.70
9325;BME280;4701;51.566;6.776;2022-08-19T09:18:16;101116.91;;;22.54;67.09
9325;BME280;4701;51.566;6.776;2022-08-19T09:20:21;101113.66;;;22.52;66.15
9325;BME280;4701;51.566;6.776;2022-08-19T09:22:24;101107.41;;;22.55;66.79
9325;BME280;4701;51.566;6.776;2022-08-19T09:24:28;101107.31;;;22.63;67.73
9325;BME280;4701;51.566;6.776;2022-08-19T09:28:33;101122.66;;;22.90;67.09
9325;BME280;4701;51.566;6.776;2022-08-19T09:30:39;101128.38;;;22.94;66.04
9325;BME280;4701;51.566;6.776;2022-08-19T09:32:42;101111.34;;;22.95;66.77
9325;BME280;4701;51.566;6.776;2022-08-19T09:34:45;101112.09;;;23.05;66.70
9325;BME280;4701;51.566;6.776;2022-08-19T09:36:48;101119.16;;;23.14;65.43
9325;BME280;4701;51.566;6.776;2022-08-19T09:38:56;101120.78;;;23.15;64.97
9325;BME280;4701;51.566;6.776;2022-08-19T09:41:03;101116.19;;;23.19;65.50
9325;BME280;4701;51.566;6.776;2022-08-19T09:43:06;101113.66;;;23.26;64.90
9325;BME280;4701;51.566;6.776;2022-08-19T09:45:09;101105.78;;;23.28;65.06
9325;BME280;4701;51.566;6.776;2022-08-19T09:47:13;101110.31;;;23.33;63.34
9325;BME280;4701;51.566;6.776;2022-08-19T09:49:16;101109.88;;;23.43;64.21
9325;BME280;4701;51.566;6.776;2022-08-19T09:51:21;101114.28;;;23.44;63.04
9325;BME280;4701;51.566;6.776;2022-08-19T09:53:23;101109.50;;;23.32;63.76
9325;BME280;4701;51.566;6.776;2022-08-19T09:55:26;101103.97;;;23.45;63.99
9325;BME280;4701;51.566;6.776;2022-08-19T09:57:29;101109.13;;;23.55;63.00
9325;BME280;4701;51.566;6.776;2022-08-19T09:59:31;101112.84;;;23.59;62.49
9325;BME280;4701;51.566;6.776;2022-08-19T10:01:33;101116.31;;;23.56;62.24
9325;BME280;4701;51.566;6.776;2022-08-19T10:03:36;101115.28;;;23.60;63.13
9325;BME280;4701;51.566;6.776;2022-08-19T10:05:38;101107.31;;;23.71;62.10
9325;BME280;4701;51.566;6.776;2022-08-19T10:08:03;101119.34;;;23.63;62.11
9325;BME280;4701;51.566;6.776;2022-08-19T10:10:16;101114.56;;;23.51;62.20
9325;BME280;4701;51.566;6.776;2022-08-19T10:12:24;101120.13;;;23.51;63.37
9325;BME280;4701;51.566;6.776;2022-08-19T10:14:38;101108.47;;;23.37;62.54
9325;BME280;4701;51.566;6.776;2022-08-19T10:16:48;101107.44;;;23.42;63.27
9325;BME280;4701;51.566;6.776;2022-08-19T10:18:53;101116.66;;;23.54;63.73
9325;BME280;4701;51.566;6.776;2022-08-19T10:21:04;101111.09;;;23.66;62.43
9325;BME280;4701;51.566;6.776;2022-08-19T10:23:10;101113.22;;;23.69;61.38
9325;BME280;4701;51.566;6.776;2022-08-19T10:25:22;101106.13;;;23.60;61.62
9325;BME280;4701;51.566;6.776;2022-08-19T10:27:24;101110.41;;;23.57;62.00
9325;BME280;4701;51.566;6.776;2022-08-19T10:29:27;101101.94;;;23.54;61.02
9325;BME280;4701;51.566;6.776;2022-08-19T10:31:32;101109.25;;;23.58;60.64
9325;BME280;4701;51.566;6.776;2022-08-19T10:33:36;101102.47;;;23.47;60.68
9325;BME280;4701;51.566;6.776;2022-08-19T10:35:48;101103.50;;;23.43;61.07
9325;BME280;4701;51.566;6.776;2022-08-19T10:37:53;101101.28;;;23.36;60.70
9325;BME280;4701;51.566;6.776;2022-08-19T10:40:03;101101.28;;;23.36;61.06
9325;BME280;4701;51.566;6.776;2022-08-19T10:42:06;101099.91;;;23.42;60.79
9325;BME280;4701;51.566;6.776;2022-08-19T10:44:14;101090.09;;;23.57;60.85
9325;BME280;4701;51.566;6.776;2022-08-19T10:46:22;101089.53;;;23.75;60.82
9325;BME280;4701;51.566;6.776;2022-08-19T10:48:31;101078.78;;;23.86;59.31
9325;BME280;4701;51.566;6.776;2022-08-19T10:50:36;101084.56;;;23.93;59.57
9325;BME280;4701;51.566;6.776;2022-08-19T10:53:11;101079.69;;;23.78;58.96
9325;BME280;4701;51.566;6.776;2022-08-19T10:55:23;101083.19;;;23.63;59.79
9325;BME280;4701;51.566;6.776;2022-08-19T10:57:46;101098.09;;;23.58;60.49
9325;BME280;4701;51.566;6.776;2022-08-19T10:59:54;101090.88;;;23.45;59.70
9325;BME280;4701;51.566;6.776;2022-08-19T11:02:02;101088.84;;;23.54;60.38
9325;BME280;4701;51.566;6.776;2022-08-19T11:04:17;101081.44;;;23.83;59.88
9325;BME280;4701;51.566;6.776;2022-08-19T11:06:32;101078.97;;;24.18;59.06
9325;BME280;4701;51.566;6.776;2022-08-19T11:08:40;101073.63;;;24.49;56.44
9325;BME280;4701;51.566;6.776;2022-08-19T11:10:50;101068.47;;;24.63;56.66
9325;BME280;4701;51.566;6.776;2022-08-19T11:13:05;101072.97;;;24.68;55.82
9325;BME280;4701;51.566;6.776;2022-08-19T11:15:18;101063.28;;;24.77;55.70
9325;BME280;4701;51.566;6.776;2022-08-19T11:17:34;101068.25;;;24.84;56.18
9325;BME280;4701;51.566;6.776;2022-08-19T11:19:47;101071.41;;;25.10;55.52
9325;BME280;4701;51.566;6.776;2022-08-19T11:21:56;101071.16;;;25.15;55.49
9325;BME280;4701;51.566;6.776;2022-08-19T11:24:08;101072.41;;;25.18;54.17
9325;BME280;4701;51.566;6.776;2022-08-19T11:26:22;101072.78;;;25.16;52.91
9325;BME280;4701;51.566;6.776;2022-08-19T11:28:36;101076.91;;;25.07;52.96
9325;BME280;4701;51.566;6.776;2022-08-19T11:30:56;101081.28;;;24.80;50.60
9325;BME280;4701;51.566;6.776;2022-08-19T11:33:03;101079.41;;;24.56;51.79
9325;BME280;4701;51.566;6.776;2022-08-19T11:35:09;101085.47;;;24.46;53.14
9325;BME280;4701;51.566;6.776;2022-08-19T11:37:11;101074.72;;;24.32;53.31
9325;BME280;4701;51.566;6.776;2022-08-19T11:39:16;101065.03;;;24.42;53.14
9325;BME280;4701;51.566;6.776;2022-08-19T11:41:20;101078.78;;;24.63;52.92
9325;BME280;4701;51.566;6.776;2022-08-19T11:43:24;101072.53;;;24.66;51.69
9325;BME280;4701;51.566;6.776;2022-08-19T11:45:34;101064.38;;;24.73;52.43
9325;BME280;4701;51.566;6.776;2022-08-19T11:47:44;101062.19;;;24.94;52.29
9325;BME280;4701;51.566;6.776;2022-08-19T11:49:56;101063.50;;;25.12;51.86
9325;BME280;4701;51.566;6.776;2022-08-19T11:52:06;101068.06;;;25.05;51.80
9325;BME280;4701;51.566;6.776;2022-08-19T11:54:17;101066.97;;;24.94;50.65
9325;BME280;4701;51.566;6.776;2022-08-19T11:56:22;101070.13;;;24.92;51.46
9325;BME280;4701;51.566;6.776;2022-08-19T11:58:27;101069.69;;;25.06;51.45
9325;BME280;4701;51.566;6.776;2022-08-19T12:00:40;101056.41;;;25.15;50.64
9325;BME280;4701;51.566;6.776;2022-08-19T12:02:46;101049.03;;;25.22;47.92
9325;BME280;4701;51.566;6.776;2022-08-19T12:04:56;101054.63;;;25.38;49.63
9325;BME280;4701;51.566;6.776;2022-08-19T12:07:04;101058.06;;;25.47;47.58
9325;BME280;4701;51.566;6.776;2022-08-19T12:09:16;101057.50;;;25.57;47.37
9325;BME280;4701;51.566;6.776;2022-08-19T12:11:23;101060.06;;;25.62;46.61
9325;BME280;4701;51.566;6.776;2022-08-19T12:13:25;101056.91;;;25.64;45.68
9325;BME280;4701;51.566;6.776;2022-08-19T12:15:40;101055.56;;;25.74;46.82
9325;BME280;4701;51.566;6.776;2022-08-19T12:17:48;101047.16;;;25.89;46.83
9325;BME280;4701;51.566;6.776;2022-08-19T12:19:51;101043.44;;;26.01;47.23
9325;BME280;4701;51.566;6.776;2022-08-19T12:21:59;101051.47;;;26.03;45.37
9325;BME280;4701;51.566;6.776;2022-08-19T12:24:06;101037.59;;;25.90;45.66
9325;BME280;4701;51.566;6.776;2022-08-19T12:26:13;101040.06;;;25.76;45.83
9325;BME280;4701;51.566;6.776;2022-08-19T12:28:15;101039.97;;;25.73;45.56
9325;BME280;4701;51.566;6.776;2022-08-19T12:30:17;101037.28;;;25.76;45.49
9325;BME280;4701;51.566;6.776;2022-08-19T12:32:19;101031.75;;;25.80;45.38
9325;BME280;4701;51.566;6.776;2022-08-19T12:34:21;101044.53;;;25.96;46.25
9325;BME280;4701;51.566;6.776;2022-08-19T12:36:23;101038.47;;;26.10;45.97
9325;BME280;4701;51.566;6.776;2022-08-19T12:38:25;101035.84;;;26.17;45.28
9325;BME280;4701;51.566;6.776;2022-08-19T12:40:27;101041.63;;;26.09;46.31
9325;BME280;4701;51.566;6.776;2022-08-19T12:42:31;101038.78;;;25.89;45.59
9325;BME280;4701;51.566;6.776;2022-08-19T12:44:33;101044.47;;;25.61;45.83
9325;BME280;4701;51.566;6.776;2022-08-19T12:46:35;101036.00;;;25.58;46.28
9325;BME280;4701;51.566;6.776;2022-08-19T12:48:38;101038.72;;;25.70;46.36
9325;BME280;4701;51.566;6.776;2022-08-19T12:50:45;101034.47;;;25.92;45.93
9325;BME280;4701;51.566;6.776;2022-08-19T12:52:47;101039.72;;;26.13;45.74
9325;BME280;4701;51.566;6.776;2022-08-19T12:54:50;101031.16;;;26.06;45.66
9325;BME280;4701;51.566;6.776;2022-08-19T12:56:53;101033.50;;;26.04;44.71
9325;BME280;4701;51.566;6.776;2022-08-19T12:59:00;101036.19;;;26.16;45.08
9325;BME280;4701;51.566;6.776;2022-08-19T13:01:06;101037.16;;;26.23;45.07
9325;BME280;4701;51.566;6.776;2022-08-19T13:03:08;101025.00;;;26.31;44.74
9325;BME280;4701;51.566;6.776;2022-08-19T13:05:12;101021.38;;;26.31;44.22
9325;BME280;4701;51.566;6.776;2022-08-19T13:07:15;101026.09;;;26.46;44.50
9325;BME280;4701;51.566;6.776;2022-08-19T13:09:17;101022.06;;;26.44;45.03
9325;BME280;4701;51.566;6.776;2022-08-19T13:11:20;101026.28;;;26.18;44.66
9325;BME280;4701;51.566;6.776;2022-08-19T13:13:24;101021.91;;;26.02;45.29
9325;BME280;4701;51.566;6.776;2022-08-19T13:15:29;101028.06;;;25.91;45.34
9325;BME280;4701;51.566;6.776;2022-08-19T13:17:33;101029.91;;;26.03;44.40
9325;BME280;4701;51.566;6.776;2022-08-19T13:19:36;101024.94;;;26.28;44.49
9325;BME280;4701;51.566;6.776;2022-08-19T13:21:38;101027.44;;;26.52;44.28
9325;BME280;4701;51.566;6.776;2022-08-19T13:23:40;101022.81;;;26.79;43.35
9325;BME280;4701;51.566;6.776;2022-08-19T13:25:42;101025.22;;;27.00;42.87
9325;BME280;4701;51.566;6.776;2022-08-19T13:27:45;101010.31;;;27.15;42.32
9325;BME280;4701;51.566;6.776;2022-08-19T13:29:47;101015.91;;;27.38;41.99
9325;BME280;4701;51.566;6.776;2022-08-19T13:32:21;101016.56;;;27.77;40.40
9325;BME280;4701;51.566;6.776;2022-08-19T13:34:40;101005.91;;;28.12;39.22
9325;BME280;4701;51.566;6.776;2022-08-19T13:36:42;101009.84;;;29.05;38.90
9325;BME280;4701;51.566;6.776;2022-08-19T13:38:44;101003.50;;;29.52;37.20
9325;BME280;4701;51.566;6.776;2022-08-19T13:40:47;100997.63;;;28.83;38.74
9325;BME280;4701;51.566;6.776;2022-08-19T13:42:53;100996.63;;;28.08;40.84
9325;BME280;4701;51.566;6.776;2022-08-19T13:44:55;101001.00;;;28.06;40.99
9325;BME280;4701;51.566;6.776;2022-08-19T13:47:00;100995.28;;;27.99;41.36
9325;BME280;4701;51.566;6.776;2022-08-19T13:49:08;100993.97;;;27.89;40.30
9325;BME280;4701;51.566;6.776;2022-08-19T13:51:10;100992.53;;;27.27;41.63
9325;BME280;4701;51.566;6.776;2022-08-19T13:53:12;101004.88;;;27.48;42.07
9325;BME280;4701;51.566;6.776;2022-08-19T13:55:15;100983.13;;;27.88;41.22
9325;BME280;4701;51.566;6.776;2022-08-19T13:57:17;100991.91;;;27.86;42.47
9325;BME280;4701;51.566;6.776;2022-08-19T13:59:19;100984.69;;;27.85;42.67
9325;BME280;4701;51.566;6.776;2022-08-19T14:01:21;100989.72;;;27.72;42.71
9325;BME280;4701;51.566;6.776;2022-08-19T14:03:25;100978.81;;;27.67;43.41
9325;BME280;4701;51.566;6.776;2022-08-19T14:05:29;100977.00;;;27.78;42.42
9325;BME280;4701;51.566;6.776;2022-08-19T14:07:32;100978.44;;;28.25;42.46
9325;BME280;4701;51.566;6.776;2022-08-19T14:09:34;100979.66;;;28.24;42.46
9325;BME280;4701;51.566;6.776;2022-08-19T14:11:35;100988.22;;;28.08;42.13
9325;BME280;4701;51.566;6.776;2022-08-19T14:13:38;100987.84;;;27.83;41.71
9325;BME280;4701;51.566;6.776;2022-08-19T14:15:40;100974.56;;;27.77;42.43
9325;BME280;4701;51.566;6.776;2022-08-19T14:17:44;100983.06;;;27.84;42.29
9325;BME280;4701;51.566;6.776;2022-08-19T14:19:46;100987.84;;;27.83;42.39
9325;BME280;4701;51.566;6.776;2022-08-19T14:21:50;100985.06;;;27.83;42.73
9325;BME280;4701;51.566;6.776;2022-08-19T14:23:52;100991.72;;;28.02;43.21
9325;BME280;4701;51.566;6.776;2022-08-19T14:26:03;100985.81;;;28.07;42.78
9325;BME280;4701;51.566;6.776;2022-08-19T14:28:05;100988.84;;;28.24;42.04
9325;BME280;4701;51.566;6.776;2022-08-19T14:30:09;100978.84;;;28.23;42.20
9325;BME280;4701;51.566;6.776;2022-08-19T14:32:13;100991.88;;;28.12;42.16
9325;BME280;4701;51.566;6.776;2022-08-19T14:34:15;100982.91;;;27.73;42.14
9325;BME280;4701;51.566;6.776;2022-08-19T14:36:17;100980.91;;;27.74;42.27
9325;BME280;4701;51.566;6.776;2022-08-19T14:38:21;100982.31;;;27.61;41.53
9325;BME280;4701;51.566;6.776;2022-08-19T14:40:27;100984.53;;;27.52;42.32
9325;BME280;4701;51.566;6.776;2022-08-19T14:42:30;100986.31;;;27.37;40.44
9325;BME280;4701;51.566;6.776;2022-08-19T14:44:31;100974.81;;;27.19;41.55
9325;BME280;4701;51.566;6.776;2022-08-19T14:46:34;100983.50;;;27.14;42.29
9325;BME280;4701;51.566;6.776;2022-08-19T14:48:35;100986.56;;;27.28;42.46
9325;BME280;4701;51.566;6.776;2022-08-19T14:50:39;100988.66;;;27.35;42.56
9325;BME280;4701;51.566;6.776;2022-08-19T14:52:41;100992.09;;;27.47;42.42
9325;BME280;4701;51.566;6.776;2022-08-19T14:54:45;100990.50;;;27.50;41.49
9325;BME280;4701;51.566;6.776;2022-08-19T14:56:47;100987.66;;;27.46;42.15
9325;BME280;4701;51.566;6.776;2022-08-19T14:58:49;100988.28;;;27.59;41.74
9325;BME280;4701;51.566;6.776;2022-08-19T15:00:52;100983.69;;;27.70;40.33
9325;BME280;4701;51.566;6.776;2022-08-19T15:02:54;100985.56;;;27.63;40.11
9325;BME280;4701;51.566;6.776;2022-08-19T15:04:56;100990.66;;;27.57;40.40
9325;BME280;4701;51.566;6.776;2022-08-19T15:06:58;100992.28;;;27.58;40.61
9325;BME280;4701;51.566;6.776;2022-08-19T15:09:00;100997.94;;;27.39;41.49
9325;BME280;4701;51.566;6.776;2022-08-19T15:11:07;100998.97;;;27.31;42.18
9325;BME280;4701;51.566;6.776;2022-08-19T15:13:11;101002.91;;;27.26;42.27
9325;BME280;4701;51.566;6.776;2022-08-19T15:15:14;100999.41;;;27.33;42.34
9325;BME280;4701;51.566;6.776;2022-08-19T15:17:17;100998.97;;;27.31;42.09
9325;BME280;4701;51.566;6.776;2022-08-19T15:19:20;100998.19;;;27.30;42.20
9325;BME280;4701;51.566;6.776;2022-08-19T15:21:23;101009.88;;;27.36;41.46
9325;BME280;4701;51.566;6.776;2022-08-19T15:23:25;101010.63;;;27.33;42.51
9325;BME280;4701;51.566;6.776;2022-08-19T15:25:27;101019.09;;;27.36;43.19
9325;BME280;4701;51.566;6.776;2022-08-19T15:27:30;101013.53;;;27.40;43.44
9325;BME280;4701;51.566;6.776;2022-08-19T15:29:32;101021.31;;;27.50;43.23
9325;BME280;4701;51.566;6.776;2022-08-19T15:31:34;101025.81;;;27.55;43.32
9325;BME280;4701;51.566;6.776;2022-08-19T15:33:36;101021.06;;;27.59;43.12
9325;BME280;4701;51.566;6.776;2022-08-19T15:35:41;101034.56;;;27.53;42.56
9325;BME280;4701;51.566;6.776;2022-08-19T15:37:44;101035.94;;;27.17;42.70
9325;BME280;4701;51.566;6.776;2022-08-19T15:39:46;101041.19;;;26.99;43.71
9325;BME280;4701;51.566;6.776;2022-08-19T15:41:48;101039.44;;;26.91;42.72
9325;BME280;4701;51.566;6.776;2022-08-19T15:43:59;101035.00;;;26.90;42.43
9325;BME280;4701;51.566;6.776;2022-08-19T15:46:03;101039.66;;;27.02;42.71
9325;BME280;4701;51.566;6.776;2022-08-19T15:48:05;101046.72;;;26.96;43.70
9325;BME280;4701;51.566;6.776;2022-08-19T15:50:10;101036.56;;;26.68;42.84
9325;BME280;4701;51.566;6.776;2022-08-19T15:52:12;101033.69;;;26.65;43.37
9325;BME280;4701;51.566;6.776;2022-08-19T15:54:16;101042.75;;;26.78;43.80
9325;BME280;4701;51.566;6.776;2022-08-19T15:56:32;101040.69;;;26.94;43.29
9325;BME280;4701;51.566;6.776;2022-08-19T15:59:03;101041.63;;;27.01;43.47
9325;BME280;4701;51.566;6.776;2022-08-19T16:01:28;101041.47;;;27.14;42.99
9325;BME280;4701;51.566;6.776;2022-08-19T16:03:48;101037.38;;;27.30;43.14
9325;BME280;4701;51.566;6.776;2022-08-19T16:06:08;101043.22;;;27.44;43.68
9325;BME280;4701;51.566;6.776;2022-08-19T16:08:28;101051.28;;;27.49;42.37
9325;BME280;4701;51.566;6.776;2022-08-19T16:10:34;101046.25;;;27.55;42.78
9325;BME280;4701;51.566;6.776;2022-08-19T16:12:37;101049.59;;;27.22;43.02
9325;BME280;4701;51.566;6.776;2022-08-19T16:14:43;101039.53;;;27.18;43.47
9325;BME280;4701;51.566;6.776;2022-08-19T16:16:46;101037.34;;;27.07;44.21